sensor_id;sensor_type;location;lat;lon;timestamp;pressure;altitude;pressure_sealevel;temperature
40199;BMP280;25906;43.536;26.068;2023-07-13T00:01:55;98891.31;;;25.01
40199;BMP280;25906;43.536;26.068;2023-07-13T00:04:40;98890.81;;;25.02
40199;BMP280;25906;43.536;26.068;2023-07-13T00:07:25;98886.34;;;25.05
40199;BMP280;25906;43.536;26.068;2023-07-13T00:10:11;98888.63;;;25.01
40199;BMP280;25906;43.536;26.068;2023-07-13T00:12:57;98878.94;;;25.05
40199;BMP280;25906;43.536;26.068;2023-07-13T00:15:42;98885.16;;;25.00
40199;BMP280;25906;43.536;26.068;2023-07-13T00:18:28;98891.13;;;24.99
40199;BMP280;25906;43.536;26.068;2023-07-13T00:21:15;98886.44;;;24.99
40199;BMP280;25906;43.536;26.068;2023-07-13T00:24:01;98892.91;;;24.96
40199;BMP280;25906;43.536;26.068;2023-07-13T00:26:46;98883.31;;;24.95
40199;BMP280;25906;43.536;26.068;2023-07-13T00:29:31;98878.94;;;24.92
40199;BMP280;25906;43.536;26.068;2023-07-13T00:32:19;98883.84;;;24.81
40199;BMP280;25906;43.536;26.068;2023-07-13T00:35:04;98880.19;;;24.65
40199;BMP280;25906;43.536;26.068;2023-07-13T00:37:50;98874.31;;;24.61
40199;BMP280;25906;43.536;26.068;2023-07-13T00:40:35;98868.28;;;24.55
40199;BMP280;25906;43.536;26.068;2023-07-13T00:43:22;98862.03;;;24.60
40199;BMP280;25906;43.536;26.068;2023-07-13T00:46:18;98857.78;;;24.65
40199;BMP280;25906;43.536;26.068;2023-07-13T00:49:06;98863.94;;;24.65
40199;BMP280;25906;43.536;26.068;2023-07-13T00:52:02;98870.72;;;24.72
40199;BMP280;25906;43.536;26.068;2023-07-13T00:54:48;98865.06;;;24.70
40199;BMP280;25906;43.536;26.068;2023-07-13T00:57:34;98864.25;;;24.62
40199;BMP280;25906;43.536;26.068;2023-07-13T01:00:21;98868.00;;;24.59
40199;BMP280;25906;43.536;26.068;2023-07-13T01:03:08;98857.69;;;24.57
40199;BMP280;25906;43.536;26.068;2023-07-13T01:05:53;98860.56;;;24.46
40199;BMP280;25906;43.536;26.068;2023-07-13T01:08:38;98861.78;;;24.45
40199;BMP280;25906;43.536;26.068;2023-07-13T01:11:26;98868.13;;;24.34
40199;BMP280;25906;43.536;26.068;2023-07-13T01:14:12;98866.56;;;24.26
40199;BMP280;25906;43.536;26.068;2023-07-13T01:16:58;98863.53;;;24.16
40199;BMP280;25906;43.536;26.068;2023-07-13T01:19:45;98862.34;;;24.12
40199;BMP280;25906;43.536;26.068;2023-07-13T01:22:31;98862.78;;;24.16
40199;BMP280;25906;43.536;26.068;2023-07-13T01:25:18;98861.91;;;24.08
40199;BMP280;25906;43.536;26.068;2023-07-13T01:28:05;98863.81;;;24.13
40199;BMP280;25906;43.536;26.068;2023-07-13T01:30:51;98851.44;;;24.17
40199;BMP280;25906;43.536;26.068;2023-07-13T01:33:39;98860.38;;;24.12
40199;BMP280;25906;43.536;26.068;2023-07-13T01:36:24;98860.91;;;23.92
40199;BMP280;25906;43.536;26.068;2023-07-13T01:39:10;98864.59;;;23.95
40199;BMP280;25906;43.536;26.068;2023-07-13T01:41:55;98851.22;;;24.02
40199;BMP280;25906;43.536;26.068;2023-07-13T01:44:41;98854.75;;;24.10
40199;BMP280;25906;43.536;26.068;2023-07-13T01:47:26;98856.06;;;24.04
40199;BMP280;25906;43.536;26.068;2023-07-13T01:50:13;98850.66;;;24.04
40199;BMP280;25906;43.536;26.068;2023-07-13T01:52:58;98856.22;;;24.11
40199;BMP280;25906;43.536;26.068;2023-07-13T01:55:43;98841.31;;;24.05
40199;BMP280;25906;43.536;26.068;2023-07-13T01:58:29;98841.75;;;24.09
40199;BMP280;25906;43.536;26.068;2023-07-13T02:01:14;98847.94;;;24.04
40199;BMP280;25906;43.536;26.068;2023-07-13T02:04:00;98850.66;;;24.04
40199;BMP280;25906;43.536;26.068;2023-07-13T02:06:45;98853.69;;;24.00
40199;BMP280;25906;43.536;26.068;2023-07-13T02:09:30;98864.31;;;23.79
40199;BMP280;25906;43.536;26.068;2023-07-13T02:12:16;98866.69;;;23.83
40199;BMP280;25906;43.536;26.068;2023-07-13T02:15:02;98857.78;;;23.88
40199;BMP280;25906;43.536;26.068;2023-07-13T02:17:48;98860.50;;;23.88
40199;BMP280;25906;43.536;26.068;2023-07-13T02:20:33;98865.22;;;23.82
40199;BMP280;25906;43.536;26.068;2023-07-13T02:23:18;98859.34;;;23.84
40199;BMP280;25906;43.536;26.068;2023-07-13T02:26:04;98866.69;;;23.83
40199;BMP280;25906;43.536;26.068;2023-07-13T02:28:50;98860.66;;;23.77
40199;BMP280;25906;43.536;26.068;2023-07-13T02:31:35;98868.78;;;23.77
40199;BMP280;25906;43.536;26.068;2023-07-13T02:34:21;98872.41;;;23.79
40199;BMP280;25906;43.536;26.068;2023-07-13T02:37:06;98862.84;;;23.78
40199;BMP280;25906;43.536;26.068;2023-07-13T02:39:52;98867.09;;;23.74
40199;BMP280;25906;43.536;26.068;2023-07-13T02:42:37;98869.25;;;23.75
40199;BMP280;25906;43.536;26.068;2023-07-13T02:45:23;98872.69;;;23.76
40199;BMP280;25906;43.536;26.068;2023-07-13T02:48:08;98860.28;;;23.67
40199;BMP280;25906;43.536;26.068;2023-07-13T02:50:54;98867.28;;;23.57
40199;BMP280;25906;43.536;26.068;2023-07-13T02:53:39;98871.38;;;23.64
40199;BMP280;25906;43.536;26.068;2023-07-13T02:56:26;98873.06;;;23.67
40199;BMP280;25906;43.536;26.068;2023-07-13T02:59:12;98872.06;;;23.70
40199;BMP280;25906;43.536;26.068;2023-07-13T03:01:57;98876.50;;;23.67
40199;BMP280;25906;43.536;26.068;2023-07-13T03:04:43;98876.00;;;23.69
40199;BMP280;25906;43.536;26.068;2023-07-13T03:07:30;98874.94;;;23.72
40199;BMP280;25906;43.536;26.068;2023-07-13T03:10:16;98872.22;;;23.77
40199;BMP280;25906;43.536;26.068;2023-07-13T03:13:01;98881.91;;;23.86
40199;BMP280;25906;43.536;26.068;2023-07-13T03:15:48;98876.03;;;23.82
40199;BMP280;25906;43.536;26.068;2023-07-13T03:18:34;98883.22;;;23.79
40199;BMP280;25906;43.536;26.068;2023-07-13T03:21:20;98875.09;;;23.98
40199;BMP280;25906;43.536;26.068;2023-07-13T03:24:06;98871.50;;;23.90
40199;BMP280;25906;43.536;26.068;2023-07-13T03:26:51;98875.84;;;23.99
40199;BMP280;25906;43.536;26.068;2023-07-13T03:29:37;98862.06;;;24.15
40199;BMP280;25906;43.536;26.068;2023-07-13T03:32:22;98866.88;;;24.35
40199;BMP280;25906;43.536;26.068;2023-07-13T03:35:08;98867.44;;;24.60
40199;BMP280;25906;43.536;26.068;2023-07-13T03:37:54;98874.03;;;25.04
40199;BMP280;25906;43.536;26.068;2023-07-13T03:40:40;98869.75;;;25.08
40199;BMP280;25906;43.536;26.068;2023-07-13T03:43:25;98874.72;;;25.44
40199;BMP280;25906;43.536;26.068;2023-07-13T03:46:11;98872.56;;;25.29
40199;BMP280;25906;43.536;26.068;2023-07-13T03:48:56;98870.47;;;25.69
40199;BMP280;25906;43.536;26.068;2023-07-13T03:51:41;98876.44;;;25.88
40199;BMP280;25906;43.536;26.068;2023-07-13T03:54:27;98875.38;;;25.91
40199;BMP280;25906;43.536;26.068;2023-07-13T03:57:12;98874.34;;;26.15
40199;BMP280;25906;43.536;26.068;2023-07-13T03:59:58;98881.00;;;26.34
40199;BMP280;25906;43.536;26.068;2023-07-13T04:02:43;98872.03;;;26.39
40199;BMP280;25906;43.536;26.068;2023-07-13T04:05:29;98873.56;;;26.56
40199;BMP280;25906;43.536;26.068;2023-07-13T04:08:14;98872.75;;;26.68
40199;BMP280;25906;43.536;26.068;2023-07-13T04:11:01;98886.06;;;26.87
40199;BMP280;25906;43.536;26.068;2023-07-13T04:13:47;98886.09;;;26.94
40199;BMP280;25906;43.536;26.068;2023-07-13T04:16:32;98878.81;;;26.89
40199;BMP280;25906;43.536;26.068;2023-07-13T04:19:18;98878.47;;;26.93
40199;BMP280;25906;43.536;26.068;2023-07-13T04:22:03;98881.00;;;26.91
40199;BMP280;25906;43.536;26.068;2023-07-13T04:24:49;98887.84;;;27.12
40199;BMP280;25906;43.536;26.068;2023-07-13T04:27:34;98893.31;;;27.27
40199;BMP280;25906;43.536;26.068;2023-07-13T04:30:20;98893.53;;;27.37
40199;BMP280;25906;43.536;26.068;2023-07-13T04:33:05;98901.53;;;27.43
40199;BMP280;25906;43.536;26.068;2023-07-13T04:35:53;98896.16;;;27.65
40199;BMP280;25906;43.536;26.068;2023-07-13T04:38:41;98898.50;;;27.69
40199;BMP280;25906;43.536;26.068;2023-07-13T04:41:27;98899.38;;;27.64
40199;BMP280;25906;43.536;26.068;2023-07-13T04:44:13;98897.97;;;27.78
40199;BMP280;25906;43.536;26.068;2023-07-13T04:46:58;98906.69;;;27.91
40199;BMP280;25906;43.536;26.068;2023-07-13T04:49:44;98906.53;;;28.05
40199;BMP280;25906;43.536;26.068;2023-07-13T04:52:30;98909.44;;;28.07
40199;BMP280;25906;43.536;26.068;2023-07-13T04:55:15;98911.97;;;27.97
40199;BMP280;25906;43.536;26.068;2023-07-13T04:58:01;98915.06;;;28.09
40199;BMP280;25906;43.536;26.068;2023-07-13T05:00:47;98910.72;;;28.36
40199;BMP280;25906;43.536;26.068;2023-07-13T05:03:33;98918.06;;;28.73
40199;BMP280;25906;43.536;26.068;2023-07-13T05:06:19;98918.09;;;28.65
40199;BMP280;25906;43.536;26.068;2023-07-13T05:09:04;98914.97;;;28.84
40199;BMP280;25906;43.536;26.068;2023-07-13T05:11:51;98914.91;;;28.99
40199;BMP280;25906;43.536;26.068;2023-07-13T05:14:36;98911.78;;;29.10
40199;BMP280;25906;43.536;26.068;2023-07-13T05:17:22;98915.16;;;29.33
40199;BMP280;25906;43.536;26.068;2023-07-13T05:20:08;98919.66;;;29.38
40199;BMP280;25906;43.536;26.068;2023-07-13T05:22:53;98918.03;;;29.68
40199;BMP280;25906;43.536;26.068;2023-07-13T05:25:39;98911.13;;;29.67
40199;BMP280;25906;43.536;26.068;2023-07-13T05:28:25;98916.69;;;29.76
40199;BMP280;25906;43.536;26.068;2023-07-13T05:31:10;98912.53;;;30.17
40199;BMP280;25906;43.536;26.068;2023-07-13T05:33:56;98919.47;;;30.18
40199;BMP280;25906;43.536;26.068;2023-07-13T05:36:41;98920.94;;;30.36
40199;BMP280;25906;43.536;26.068;2023-07-13T05:39:26;98921.59;;;30.44
40199;BMP280;25906;43.536;26.068;2023-07-13T05:42:12;98918.50;;;30.40
40199;BMP280;25906;43.536;26.068;2023-07-13T05:44:58;98918.88;;;30.61
40199;BMP280;25906;43.536;26.068;2023-07-13T05:47:43;98938.47;;;30.67
40199;BMP280;25906;43.536;26.068;2023-07-13T05:50:29;98928.25;;;30.85
40199;BMP280;25906;43.536;26.068;2023-07-13T05:53:14;98933.00;;;30.84
40199;BMP280;25906;43.536;26.068;2023-07-13T05:56:00;98937.44;;;31.24
40199;BMP280;25906;43.536;26.068;2023-07-13T05:58:45;98937.97;;;31.22
40199;BMP280;25906;43.536;26.068;2023-07-13T06:01:31;98937.84;;;31.47
40199;BMP280;25906;43.536;26.068;2023-07-13T06:04:16;98927.00;;;31.39
40199;BMP280;25906;43.536;26.068;2023-07-13T06:07:03;98926.38;;;31.31
40199;BMP280;25906;43.536;26.068;2023-07-13T06:09:49;98933.44;;;31.34
40199;BMP280;25906;43.536;26.068;2023-07-13T06:12:34;98931.38;;;31.52
40199;BMP280;25906;43.536;26.068;2023-07-13T06:15:19;98931.41;;;31.61
40199;BMP280;25906;43.536;26.068;2023-07-13T06:18:05;98935.94;;;31.76
40199;BMP280;25906;43.536;26.068;2023-07-13T06:20:50;98936.63;;;32.22
40199;BMP280;25906;43.536;26.068;2023-07-13T06:23:35;98926.66;;;32.08
40199;BMP280;25906;43.536;26.068;2023-07-13T06:26:21;98936.66;;;32.41
40199;BMP280;25906;43.536;26.068;2023-07-13T06:29:07;98942.72;;;32.59
40199;BMP280;25906;43.536;26.068;2023-07-13T06:31:52;98936.91;;;32.45
40199;BMP280;25906;43.536;26.068;2023-07-13T06:34:38;98943.72;;;32.54
40199;BMP280;25906;43.536;26.068;2023-07-13T06:37:23;98957.69;;;32.77
40199;BMP280;25906;43.536;26.068;2023-07-13T06:40:08;98946.31;;;32.71
40199;BMP280;25906;43.536;26.068;2023-07-13T06:42:54;98948.59;;;32.93
40199;BMP280;25906;43.536;26.068;2023-07-13T06:45:40;98956.25;;;32.85
40199;BMP280;25906;43.536;26.068;2023-07-13T06:48:25;98953.34;;;33.03
40199;BMP280;25906;43.536;26.068;2023-07-13T06:51:11;98946.56;;;33.04
40199;BMP280;25906;43.536;26.068;2023-07-13T06:53:56;98952.88;;;33.25
40199;BMP280;25906;43.536;26.068;2023-07-13T06:56:42;98946.44;;;33.42
40199;BMP280;25906;43.536;26.068;2023-07-13T06:59:27;98950.47;;;33.50
40199;BMP280;25906;43.536;26.068;2023-07-13T07:02:12;98943.75;;;33.63
40199;BMP280;25906;43.536;26.068;2023-07-13T07:04:58;98948.78;;;33.36
40199;BMP280;25906;43.536;26.068;2023-07-13T07:07:43;98946.19;;;33.68
40199;BMP280;25906;43.536;26.068;2023-07-13T07:10:29;98940.53;;;33.76
40199;BMP280;25906;43.536;26.068;2023-07-13T07:13:15;98939.94;;;33.99
40199;BMP280;25906;43.536;26.068;2023-07-13T07:16:01;98938.81;;;33.92
40199;BMP280;25906;43.536;26.068;2023-07-13T07:18:46;98941.38;;;34.21
40199;BMP280;25906;43.536;26.068;2023-07-13T07:21:32;98933.47;;;34.15
40199;BMP280;25906;43.536;26.068;2023-07-13T07:24:17;98926.41;;;34.45
40199;BMP280;25906;43.536;26.068;2023-07-13T07:27:03;98932.34;;;33.87
40199;BMP280;25906;43.536;26.068;2023-07-13T07:29:48;98924.44;;;34.24
40199;BMP280;25906;43.536;26.068;2023-07-13T07:32:33;98929.00;;;34.31
40199;BMP280;25906;43.536;26.068;2023-07-13T07:35:19;98920.91;;;34.45
40199;BMP280;25906;43.536;26.068;2023-07-13T07:38:04;98925.41;;;34.29
40199;BMP280;25906;43.536;26.068;2023-07-13T07:40:50;98926.31;;;34.22
40199;BMP280;25906;43.536;26.068;2023-07-13T07:43:35;98934.13;;;34.25
40199;BMP280;25906;43.536;26.068;2023-07-13T07:46:21;98924.75;;;34.51
40199;BMP280;25906;43.536;26.068;2023-07-13T07:49:06;98921.47;;;34.76
40199;BMP280;25906;43.536;26.068;2023-07-13T07:51:51;98921.75;;;34.80
40199;BMP280;25906;43.536;26.068;2023-07-13T07:54:37;98923.03;;;34.56
40199;BMP280;25906;43.536;26.068;2023-07-13T07:57:23;98924.63;;;34.82
40199;BMP280;25906;43.536;26.068;2023-07-13T08:00:08;98928.22;;;34.84
40199;BMP280;25906;43.536;26.068;2023-07-13T08:02:54;98922.50;;;34.92
40199;BMP280;25906;43.536;26.068;2023-07-13T08:05:39;98928.00;;;35.27
40199;BMP280;25906;43.536;26.068;2023-07-13T08:08:25;98922.63;;;35.17
40199;BMP280;25906;43.536;26.068;2023-07-13T08:11:11;98924.06;;;35.41
40199;BMP280;25906;43.536;26.068;2023-07-13T08:13:56;98918.09;;;35.45
40199;BMP280;25906;43.536;26.068;2023-07-13T08:16:42;98924.19;;;35.55
40199;BMP280;25906;43.536;26.068;2023-07-13T08:19:27;98914.84;;;35.60
40199;BMP280;25906;43.536;26.068;2023-07-13T08:22:12;98920.59;;;35.41
40199;BMP280;25906;43.536;26.068;2023-07-13T08:24:59;98919.13;;;35.74
40199;BMP280;25906;43.536;26.068;2023-07-13T08:27:44;98926.06;;;35.64
40199;BMP280;25906;43.536;26.068;2023-07-13T08:30:30;98925.16;;;35.59
40199;BMP280;25906;43.536;26.068;2023-07-13T08:33:19;98928.25;;;36.02
40199;BMP280;25906;43.536;26.068;2023-07-13T08:36:04;98926.78;;;36.13
40199;BMP280;25906;43.536;26.068;2023-07-13T08:38:50;98920.84;;;35.93
40199;BMP280;25906;43.536;26.068;2023-07-13T08:41:36;98925.56;;;35.79
40199;BMP280;25906;43.536;26.068;2023-07-13T08:44:42;98928.78;;;35.87
40199;BMP280;25906;43.536;26.068;2023-07-13T08:47:31;98921.75;;;36.09
40199;BMP280;25906;43.536;26.068;2023-07-13T08:50:19;98923.22;;;36.35
40199;BMP280;25906;43.536;26.068;2023-07-13T08:53:11;98923.09;;;36.58
40199;BMP280;25906;43.536;26.068;2023-07-13T08:55:58;98910.81;;;36.48
40199;BMP280;25906;43.536;26.068;2023-07-13T08:58:45;98912.72;;;36.70
40199;BMP280;25906;43.536;26.068;2023-07-13T09:04:28;98914.72;;;36.56
40199;BMP280;25906;43.536;26.068;2023-07-13T09:10:45;98905.69;;;36.95
40199;BMP280;25906;43.536;26.068;2023-07-13T09:13:43;98900.34;;;36.71
40199;BMP280;25906;43.536;26.068;2023-07-13T09:16:34;98901.44;;;36.66
40199;BMP280;25906;43.536;26.068;2023-07-13T09:19:27;98902.00;;;36.90
40199;BMP280;25906;43.536;26.068;2023-07-13T09:22:18;98897.75;;;37.01
40199;BMP280;25906;43.536;26.068;2023-07-13T09:28:02;98891.56;;;36.75
40199;BMP280;25906;43.536;26.068;2023-07-13T09:31:00;98891.47;;;37.14
40199;BMP280;25906;43.536;26.068;2023-07-13T09:33:47;98884.84;;;36.92
40199;BMP280;25906;43.536;26.068;2023-07-13T09:36:33;98895.69;;;37.01
40199;BMP280;25906;43.536;26.068;2023-07-13T09:39:28;98893.72;;;37.04
40199;BMP280;25906;43.536;26.068;2023-07-13T09:42:19;98891.16;;;36.94
40199;BMP280;25906;43.536;26.068;2023-07-13T09:45:07;98886.28;;;36.92
40199;BMP280;25906;43.536;26.068;2023-07-13T09:48:11;98881.06;;;37.26
40199;BMP280;25906;43.536;26.068;2023-07-13T09:51:09;98892.50;;;37.07
40199;BMP280;25906;43.536;26.068;2023-07-13T09:53:58;98900.78;;;36.93
40199;BMP280;25906;43.536;26.068;2023-07-13T09:56:43;98898.31;;;36.99
40199;BMP280;25906;43.536;26.068;2023-07-13T09:59:35;98901.81;;;37.00
40199;BMP280;25906;43.536;26.068;2023-07-13T10:02:27;98897.31;;;37.20
40199;BMP280;25906;43.536;26.068;2023-07-13T10:05:14;98899.75;;;37.27
40199;BMP280;25906;43.536;26.068;2023-07-13T10:08:01;98905.00;;;37.35
40199;BMP280;25906;43.536;26.068;2023-07-13T10:10:52;98902.34;;;37.10
40199;BMP280;25906;43.536;26.068;2023-07-13T10:13:42;98897.50;;;37.24
40199;BMP280;25906;43.536;26.068;2023-07-13T10:16:32;98898.13;;;37.22
40199;BMP280;25906;43.536;26.068;2023-07-13T10:19:26;98887.41;;;37.28
40199;BMP280;25906;43.536;26.068;2023-07-13T10:22:20;98893.22;;;37.21
40199;BMP280;25906;43.536;26.068;2023-07-13T10:25:16;98883.38;;;37.45
40199;BMP280;25906;43.536;26.068;2023-07-13T10:28:04;98872.00;;;37.66
40199;BMP280;25906;43.536;26.068;2023-07-13T10:30:52;98881.28;;;37.72
40199;BMP280;25906;43.536;26.068;2023-07-13T10:33:38;98874.88;;;37.54
40199;BMP280;25906;43.536;26.068;2023-07-13T10:39:21;98877.03;;;37.29
40199;BMP280;25906;43.536;26.068;2023-07-13T10:42:13;98875.94;;;37.34
40199;BMP280;25906;43.536;26.068;2023-07-13T10:44:59;98879.81;;;37.42
40199;BMP280;25906;43.536;26.068;2023-07-13T10:47:45;98882.31;;;37.65
40199;BMP280;25906;43.536;26.068;2023-07-13T10:50:31;98888.25;;;37.73
40199;BMP280;25906;43.536;26.068;2023-07-13T10:53:31;98883.41;;;37.74
40199;BMP280;25906;43.536;26.068;2023-07-13T10:56:28;98884.31;;;37.78
40199;BMP280;25906;43.536;26.068;2023-07-13T10:59:27;98883.63;;;38.07
40199;BMP280;25906;43.536;26.068;2023-07-13T11:02:23;98873.69;;;38.02
40199;BMP280;25906;43.536;26.068;2023-07-13T11:05:30;98883.88;;;37.97
40199;BMP280;25906;43.536;26.068;2023-07-13T11:08:32;98874.06;;;38.10
40199;BMP280;25906;43.536;26.068;2023-07-13T11:15:15;98858.38;;;38.30
40199;BMP280;25906;43.536;26.068;2023-07-13T11:17:47;98846.09;;;38.64
40199;BMP280;25906;43.536;26.068;2023-07-13T11:20:37;98845.72;;;38.25
40199;BMP280;25906;43.536;26.068;2023-07-13T11:23:29;98858.06;;;37.93
40199;BMP280;25906;43.536;26.068;2023-07-13T11:32:31;98844.13;;;37.75
40199;BMP280;25906;43.536;26.068;2023-07-13T11:35:23;98845.31;;;37.86
40199;BMP280;25906;43.536;26.068;2023-07-13T11:38:30;98828.16;;;37.74
40199;BMP280;25906;43.536;26.068;2023-07-13T11:41:22;98831.13;;;37.78
40199;BMP280;25906;43.536;26.068;2023-07-13T11:47:09;98824.19;;;37.92
40199;BMP280;25906;43.536;26.068;2023-07-13T11:49:55;98822.69;;;37.76
40199;BMP280;25906;43.536;26.068;2023-07-13T11:52:41;98819.28;;;37.91
40199;BMP280;25906;43.536;26.068;2023-07-13T11:55:28;98817.44;;;37.95
40199;BMP280;25906;43.536;26.068;2023-07-13T11:58:18;98812.88;;;38.02
40199;BMP280;25906;43.536;26.068;2023-07-13T12:01:05;98814.84;;;38.15
40199;BMP280;25906;43.536;26.068;2023-07-13T12:03:51;98808.50;;;37.97
40199;BMP280;25906;43.536;26.068;2023-07-13T12:06:37;98805.88;;;37.85
40199;BMP280;25906;43.536;26.068;2023-07-13T12:09:27;98787.75;;;38.12
40199;BMP280;25906;43.536;26.068;2023-07-13T12:12:16;98796.19;;;38.00
40199;BMP280;25906;43.536;26.068;2023-07-13T12:15:08;98787.13;;;38.13
40199;BMP280;25906;43.536;26.068;2023-07-13T12:17:55;98783.56;;;38.26
40199;BMP280;25906;43.536;26.068;2023-07-13T12:20:41;98770.69;;;38.33
40199;BMP280;25906;43.536;26.068;2023-07-13T12:26:17;98772.75;;;38.32
40199;BMP280;25906;43.536;26.068;2023-07-13T12:29:05;98776.41;;;38.21
40199;BMP280;25906;43.536;26.068;2023-07-13T12:31:51;98773.56;;;38.19
40199;BMP280;25906;43.536;26.068;2023-07-13T12:34:53;98766.13;;;38.24
40199;BMP280;25906;43.536;26.068;2023-07-13T12:37:43;98758.63;;;38.57
40199;BMP280;25906;43.536;26.068;2023-07-13T12:40:33;98748.94;;;38.10
40199;BMP280;25906;43.536;26.068;2023-07-13T12:43:23;98757.50;;;38.00
40199;BMP280;25906;43.536;26.068;2023-07-13T12:46:24;98770.75;;;37.72
40199;BMP280;25906;43.536;26.068;2023-07-13T12:49:13;98757.38;;;37.82
40199;BMP280;25906;43.536;26.068;2023-07-13T12:52:04;98764.72;;;37.91
40199;BMP280;25906;43.536;26.068;2023-07-13T12:54:54;98760.25;;;38.16
40199;BMP280;25906;43.536;26.068;2023-07-13T12:57:58;98760.53;;;38.06
40199;BMP280;25906;43.536;26.068;2023-07-13T13:00:48;98759.00;;;37.87
40199;BMP280;25906;43.536;26.068;2023-07-13T13:03:37;98749.38;;;37.88
40199;BMP280;25906;43.536;26.068;2023-07-13T13:06:28;98751.44;;;38.03
40199;BMP280;25906;43.536;26.068;2023-07-13T13:09:16;98753.28;;;37.99
40199;BMP280;25906;43.536;26.068;2023-07-13T13:12:03;98747.84;;;38.01
40199;BMP280;25906;43.536;26.068;2023-07-13T13:14:50;98750.09;;;37.89
40199;BMP280;25906;43.536;26.068;2023-07-13T13:17:38;98753.59;;;37.60
40199;BMP280;25906;43.536;26.068;2023-07-13T13:20:24;98755.88;;;37.79
40199;BMP280;25906;43.536;26.068;2023-07-13T13:23:14;98752.28;;;37.77
40199;BMP280;25906;43.536;26.068;2023-07-13T13:26:01;98748.47;;;37.84
40199;BMP280;25906;43.536;26.068;2023-07-13T13:28:47;98746.25;;;37.80
40199;BMP280;25906;43.536;26.068;2023-07-13T13:31:33;98748.56;;;37.86
40199;BMP280;25906;43.536;26.068;2023-07-13T13:34:20;98752.41;;;37.79
40199;BMP280;25906;43.536;26.068;2023-07-13T13:37:17;98747.66;;;37.66
40199;BMP280;25906;43.536;26.068;2023-07-13T13:40:11;98741.81;;;37.73
40199;BMP280;25906;43.536;26.068;2023-07-13T13:42:58;98738.50;;;37.92
40199;BMP280;25906;43.536;26.068;2023-07-13T13:45:45;98741.72;;;37.87
40199;BMP280;25906;43.536;26.068;2023-07-13T13:48:33;98732.59;;;37.69
40199;BMP280;25906;43.536;26.068;2023-07-13T13:51:21;98732.53;;;37.82
40199;BMP280;25906;43.536;26.068;2023-07-13T13:54:11;98732.84;;;37.75
40199;BMP280;25906;43.536;26.068;2023-07-13T13:56:56;98730.25;;;37.63
40199;BMP280;25906;43.536;26.068;2023-07-13T13:59:44;98729.94;;;37.71
40199;BMP280;25906;43.536;26.068;2023-07-13T14:02:29;98719.03;;;37.75
40199;BMP280;25906;43.536;26.068;2023-07-13T14:05:22;98716.03;;;37.69
40199;BMP280;25906;43.536;26.068;2023-07-13T14:08:19;98730.06;;;37.59
40199;BMP280;25906;43.536;26.068;2023-07-13T14:11:05;98727.56;;;37.50
40199;BMP280;25906;43.536;26.068;2023-07-13T14:13:57;98718.22;;;37.57
40199;BMP280;25906;43.536;26.068;2023-07-13T14:16:46;98731.84;;;37.53
40199;BMP280;25906;43.536;26.068;2023-07-13T14:19:38;98724.31;;;37.40
40199;BMP280;25906;43.536;26.068;2023-07-13T14:22:24;98708.25;;;37.50
40199;BMP280;25906;43.536;26.068;2023-07-13T14:25:11;98703.84;;;37.45
40199;BMP280;25906;43.536;26.068;2023-07-13T14:27:58;98707.94;;;37.44
40199;BMP280;25906;43.536;26.068;2023-07-13T14:30:46;98707.50;;;37.49
40199;BMP280;25906;43.536;26.068;2023-07-13T14:33:32;98715.13;;;37.35
40199;BMP280;25906;43.536;26.068;2023-07-13T14:36:27;98703.22;;;37.17
40199;BMP280;25906;43.536;26.068;2023-07-13T14:39:19;98706.28;;;37.23
40199;BMP280;25906;43.536;26.068;2023-07-13T14:42:05;98697.13;;;37.19
40199;BMP280;25906;43.536;26.068;2023-07-13T14:44:50;98698.47;;;37.04
40199;BMP280;25906;43.536;26.068;2023-07-13T14:47:36;98698.56;;;37.06
40199;BMP280;25906;43.536;26.068;2023-07-13T14:50:31;98686.16;;;36.92
40199;BMP280;25906;43.536;26.068;2023-07-13T14:53:17;98675.38;;;36.98
40199;BMP280;25906;43.536;26.068;2023-07-13T14:56:11;98682.94;;;36.97
40199;BMP280;25906;43.536;26.068;2023-07-13T14:58:57;98679.63;;;37.14
40199;BMP280;25906;43.536;26.068;2023-07-13T15:01:42;98679.06;;;37.02
40199;BMP280;25906;43.536;26.068;2023-07-13T15:04:29;98679.13;;;37.18
40199;BMP280;25906;43.536;26.068;2023-07-13T15:07:15;98679.69;;;37.01
40199;BMP280;25906;43.536;26.068;2023-07-13T15:10:12;98680.91;;;36.98
40199;BMP280;25906;43.536;26.068;2023-07-13T15:13:12;98685.31;;;37.03
40199;BMP280;25906;43.536;26.068;2023-07-13T15:15:58;98682.31;;;36.99
40199;BMP280;25906;43.536;26.068;2023-07-13T15:18:44;98687.28;;;36.86
40199;BMP280;25906;43.536;26.068;2023-07-13T15:21:31;98685.56;;;36.79
40199;BMP280;25906;43.536;26.068;2023-07-13T15:24:20;98687.72;;;36.67
40199;BMP280;25906;43.536;26.068;2023-07-13T15:27:13;98689.63;;;36.65
40199;BMP280;25906;43.536;26.068;2023-07-13T15:29:58;98690.16;;;36.75
40199;BMP280;25906;43.536;26.068;2023-07-13T15:32:45;98688.84;;;36.62
40199;BMP280;25906;43.536;26.068;2023-07-13T15:35:30;98697.22;;;36.51
40199;BMP280;25906;43.536;26.068;2023-07-13T15:38:18;98703.00;;;36.57
40199;BMP280;25906;43.536;26.068;2023-07-13T15:41:20;98703.28;;;36.47
40199;BMP280;25906;43.536;26.068;2023-07-13T15:47:11;98705.59;;;36.39
40199;BMP280;25906;43.536;26.068;2023-07-13T15:49:57;98711.09;;;36.26
40199;BMP280;25906;43.536;26.068;2023-07-13T15:52:45;98701.19;;;36.21
40199;BMP280;25906;43.536;26.068;2023-07-13T15:55:37;98702.00;;;36.10
40199;BMP280;25906;43.536;26.068;2023-07-13T15:58:24;98694.41;;;36.10
40199;BMP280;25906;43.536;26.068;2023-07-13T16:01:10;98694.75;;;36.16
40199;BMP280;25906;43.536;26.068;2023-07-13T16:03:56;98699.75;;;36.06
40199;BMP280;25906;43.536;26.068;2023-07-13T16:09:22;98695.25;;;35.99
40199;BMP280;25906;43.536;26.068;2023-07-13T16:12:14;98700.91;;;36.15
40199;BMP280;25906;43.536;26.068;2023-07-13T16:15:00;98697.31;;;36.12
40199;BMP280;25906;43.536;26.068;2023-07-13T16:17:47;98696.69;;;36.00
40199;BMP280;25906;43.536;26.068;2023-07-13T16:20:32;98698.22;;;35.78
40199;BMP280;25906;43.536;26.068;2023-07-13T16:23:18;98697.31;;;35.73
40199;BMP280;25906;43.536;26.068;2023-07-13T16:26:08;98693.72;;;35.71